createdAt,value
2022-12-18T00:01:23.161Z,99868.88
2022-12-18T00:03:50.708Z,99856.66
2022-12-18T00:06:17.969Z,99860.59
2022-12-18T00:08:45.731Z,99856.16
2022-12-18T00:11:15.230Z,99855.63
2022-12-18T00:13:43.013Z,99858.94
2022-12-18T00:16:13.088Z,99864.88
2022-12-18T00:18:40.935Z,99871.66
2022-12-18T00:21:09.946Z,99868.50
2022-12-18T00:23:38.851Z,99873.56
2022-12-18T00:26:08.677Z,99871.09
2022-12-18T00:28:35.425Z,99871.91
2022-12-18T00:31:03.366Z,99871.59
2022-12-18T00:33:30.464Z,99859.41
2022-12-18T00:36:09.945Z,99859.78
2022-12-18T00:38:37.475Z,99869.53
2022-12-18T00:41:05.346Z,99871.81
2022-12-18T00:43:36.035Z,99877.09
2022-12-18T00:46:03.556Z,99881.91
2022-12-18T00:48:30.477Z,99883.03
2022-12-18T00:50:57.373Z,99888.81
2022-12-18T00:53:24.400Z,99892.06
2022-12-18T00:55:51.104Z,99884.34
2022-12-18T00:58:17.934Z,99878.06
2022-12-18T01:00:44.896Z,99871.25
2022-12-18T01:03:15.161Z,99867.97
2022-12-18T01:05:43.420Z,99871.59
2022-12-18T01:08:10.538Z,99867.38
2022-12-18T01:10:37.360Z,99877.75
2022-12-18T01:13:04.096Z,99873.59
2022-12-18T01:15:30.807Z,99860.00
2022-12-18T01:17:57.772Z,99870.41
2022-12-18T01:20:24.579Z,99871.53
2022-12-18T01:22:51.267Z,99871.19
2022-12-18T01:25:18.150Z,99863.75
2022-12-18T01:27:45.014Z,99864.69
2022-12-18T01:30:12.055Z,99865.38
2022-12-18T01:32:38.732Z,99866.06
2022-12-18T01:35:06.342Z,99871.69
2022-12-18T01:37:33.275Z,99865.75
2022-12-18T01:40:00.145Z,99862.63
2022-12-18T01:42:26.946Z,99860.84
2022-12-18T01:44:56.751Z,99862.50
2022-12-18T01:47:37.708Z,99860.03
2022-12-18T01:50:13.596Z,99860.72
2022-12-18T01:52:43.560Z,99853.47
2022-12-18T01:55:11.944Z,99868.66
2022-12-18T01:57:40.022Z,99863.53
2022-12-18T02:00:14.368Z,99864.84
2022-12-18T02:02:46.273Z,99882.13
2022-12-18T02:05:17.897Z,99877.88
2022-12-18T02:07:56.336Z,99882.34
2022-12-18T02:10:26.060Z,99881.47
2022-12-18T02:13:28.129Z,99866.63
2022-12-18T02:16:11.564Z,99870.06
2022-12-18T02:18:42.752Z,99863.97
2022-12-18T02:21:31.369Z,99875.56
2022-12-18T02:24:35.833Z,99872.59
2022-12-18T02:27:07.483Z,99862.25
2022-12-18T02:29:41.457Z,99854.66
2022-12-18T02:32:19.115Z,99863.75
2022-12-18T02:34:48.216Z,99865.41
2022-12-18T02:37:18.823Z,99856.84
2022-12-18T02:39:49.651Z,99862.78
2022-12-18T02:42:18.494Z,99857.16
2022-12-18T02:44:51.587Z,99859.94
2022-12-18T02:47:24.400Z,99868.50
2022-12-18T02:49:57.461Z,99865.22
2022-12-18T02:52:45.826Z,99854.84
2022-12-18T02:55:50.338Z,99854.66
2022-12-18T02:58:21.905Z,99864.22
2022-12-18T03:00:59.583Z,99874.66
2022-12-18T03:03:33.638Z,99870.03
2022-12-18T03:06:27.489Z,99871.69
2022-12-18T03:08:59.494Z,99871.88
2022-12-18T03:11:47.921Z,99870.53
2022-12-18T03:14:18.402Z,99870.88
2022-12-18T03:16:47.301Z,99871.06
2022-12-18T03:19:19.396Z,99866.59
2022-12-18T03:21:50.702Z,99873.69
2022-12-18T03:24:19.869Z,99872.03
2022-12-18T03:26:50.331Z,99872.34
2022-12-18T03:29:23.152Z,99875.47
2022-12-18T03:31:56.490Z,99881.41
2022-12-18T03:34:30.131Z,99880.94
2022-12-18T03:36:56.972Z,99878.28
2022-12-18T03:39:23.852Z,99875.97
2022-12-18T03:42:06.203Z,99873.00
2022-12-18T03:44:40.938Z,99862.13
2022-12-18T03:47:16.733Z,99859.13
2022-12-18T03:50:13.373Z,99859.78
2022-12-18T03:52:49.473Z,99865.00
2022-12-18T03:55:17.536Z,99860.38
2022-12-18T03:57:45.786Z,99861.22
2022-12-18T04:00:18.847Z,99872.28
2022-12-18T04:02:53.994Z,99870.94
2022-12-18T04:05:22.078Z,99870.91
2022-12-18T04:07:50.822Z,99869.75
2022-12-18T04:10:18.696Z,99863.19
2022-12-18T04:12:45.657Z,99859.03
2022-12-18T04:15:13.622Z,99851.47
2022-12-18T04:17:50.215Z,99861.38
2022-12-18T04:20:17.914Z,99851.81
2022-12-18T04:22:44.638Z,99841.09
2022-12-18T04:25:12.747Z,99827.38
2022-12-18T04:27:39.619Z,99833.19
2022-12-18T04:30:07.078Z,99831.03
2022-12-18T04:32:35.283Z,99835.97
2022-12-18T04:35:02.982Z,99839.13
2022-12-18T04:37:29.658Z,99844.56
2022-12-18T04:39:56.318Z,99846.53
2022-12-18T04:42:23.024Z,99832.19
2022-12-18T04:44:49.789Z,99831.22
2022-12-18T04:47:16.547Z,99830.38
2022-12-18T04:49:43.242Z,99826.75
2022-12-18T04:52:09.902Z,99825.75
2022-12-18T04:54:36.788Z,99841.09
2022-12-18T04:57:03.620Z,99842.91
2022-12-18T04:59:30.348Z,99837.97
2022-12-18T05:01:57.175Z,99835.31
2022-12-18T05:04:24.009Z,99833.84
2022-12-18T05:06:50.738Z,99834.31
2022-12-18T05:09:17.412Z,99835.97
2022-12-18T05:11:47.545Z,99841.44
2022-12-18T05:14:14.245Z,99850.88
2022-12-18T05:16:41.068Z,99852.53
2022-12-18T05:19:07.777Z,99843.28
2022-12-18T05:21:34.538Z,99848.91
2022-12-18T05:24:01.262Z,99845.44
2022-12-18T05:26:27.948Z,99852.00
2022-12-18T05:28:54.802Z,99850.03
2022-12-18T05:31:21.587Z,99857.13
2022-12-18T05:33:48.380Z,99858.09
2022-12-18T05:36:15.238Z,99864.34
2022-12-18T05:38:42.052Z,99860.38
2022-12-18T05:41:09.970Z,99867.97
2022-12-18T05:43:38.598Z,99874.06
2022-12-18T05:46:13.068Z,99880.47
2022-12-18T05:48:40.011Z,99867.75
2022-12-18T05:51:12.946Z,99864.25
2022-12-18T05:53:40.349Z,99855.69
2022-12-18T05:56:13.753Z,99857.00
2022-12-18T05:58:40.642Z,99847.97
2022-12-18T06:01:12.339Z,99862.31
2022-12-18T06:03:40.123Z,99853.09
2022-12-18T06:06:33.628Z,99853.41
2022-12-18T06:09:02.257Z,99861.31
2022-12-18T06:11:28.992Z,99872.53
2022-12-18T06:13:59.175Z,99874.38
2022-12-18T06:16:27.242Z,99874.34
2022-12-18T06:18:54.629Z,99871.53
2022-12-18T06:21:21.378Z,99887.06
2022-12-18T06:23:48.047Z,99881.69
2022-12-18T06:26:15.176Z,99884.47
2022-12-18T06:28:42.255Z,99887.94
2022-12-18T06:31:10.044Z,99885.75
2022-12-18T06:33:38.389Z,99883.13
2022-12-18T06:36:12.304Z,99876.06
2022-12-18T06:38:41.713Z,99890.06
2022-12-18T06:41:10.369Z,99889.38
2022-12-18T06:43:37.708Z,99903.34
2022-12-18T06:46:07.213Z,99897.59
2022-12-18T06:48:34.020Z,99900.09
2022-12-18T06:51:00.730Z,99900.44
2022-12-18T06:53:27.688Z,99908.19
2022-12-18T06:56:06.441Z,99913.31
2022-12-18T06:58:36.194Z,99914.66
2022-12-18T07:01:05.461Z,99926.53
2022-12-18T07:03:32.377Z,99916.78
2022-12-18T07:05:59.193Z,99924.66
2022-12-18T07:08:25.977Z,99921.19
2022-12-18T07:10:56.253Z,99921.28
2022-12-18T07:13:23.930Z,99929.00
2022-12-18T07:15:50.577Z,99917.78
2022-12-18T07:18:17.371Z,99923.56
2022-12-18T07:20:45.113Z,99925.00
2022-12-18T07:23:12.888Z,99917.06
2022-12-18T07:25:40.375Z,99921.53
2022-12-18T07:28:07.147Z,99911.97
2022-12-18T07:30:34.220Z,99918.38
2022-12-18T07:33:01.044Z,99922.00
2022-12-18T07:35:27.812Z,99913.09
2022-12-18T07:37:54.805Z,99905.19
2022-12-18T07:40:21.530Z,99916.41
2022-12-18T07:42:48.293Z,99922.63
2022-12-18T07:45:15.301Z,99935.16
2022-12-18T07:47:43.353Z,99941.41
2022-12-18T07:50:10.399Z,99937.34
2022-12-18T07:52:37.138Z,99939.66
2022-12-18T07:55:04.357Z,99940.66
2022-12-18T07:57:49.899Z,99940.47
2022-12-18T08:00:17.459Z,99948.56
2022-12-18T08:02:44.268Z,99944.88
2022-12-18T08:05:11.004Z,99954.28
2022-12-18T08:07:37.677Z,99959.44
2022-12-18T08:10:04.709Z,99962.56
2022-12-18T08:12:33.438Z,99970.84
2022-12-18T08:15:00.164Z,99966.53
2022-12-18T08:17:26.902Z,99973.66
2022-12-18T08:19:53.605Z,99978.59
2022-12-18T08:22:20.389Z,99971.31
2022-12-18T08:24:47.064Z,99978.13
2022-12-18T08:27:28.805Z,99979.09
2022-12-18T08:29:57.251Z,99977.75
2022-12-18T08:32:24.845Z,99977.03
2022-12-18T08:34:51.637Z,99974.59
2022-12-18T08:37:18.310Z,99974.44
2022-12-18T08:39:45.188Z,99974.31
2022-12-18T08:42:30.592Z,99960.97
2022-12-18T08:44:57.775Z,99956.94
2022-12-18T08:47:24.570Z,99948.88
2022-12-18T08:49:51.632Z,99950.91
2022-12-18T08:52:18.392Z,99949.75
2022-12-18T08:54:45.221Z,99948.28
2022-12-18T08:57:11.898Z,99937.75
2022-12-18T08:59:38.671Z,99933.16
2022-12-18T09:02:05.492Z,99929.38
2022-12-18T09:04:32.380Z,99924.22
2022-12-18T09:06:59.103Z,99921.94
2022-12-18T09:09:25.835Z,99916.50
2022-12-18T09:11:52.608Z,99920.78
2022-12-18T09:14:19.303Z,99917.97
2022-12-18T09:16:46.139Z,99915.81
2022-12-18T09:19:13.087Z,99909.53
2022-12-18T09:21:46.094Z,99910.03
2022-12-18T09:24:16.000Z,99905.72
2022-12-18T09:26:43.493Z,99903.75
2022-12-18T09:29:13.742Z,99903.72
2022-12-18T09:31:40.602Z,99897.91
2022-12-18T09:34:08.095Z,99902.69
2022-12-18T09:36:35.143Z,99909.75
2022-12-18T09:39:07.569Z,99915.22
2022-12-18T09:41:41.544Z,99923.59
2022-12-18T09:44:28.932Z,99932.31
2022-12-18T09:47:05.310Z,99932.56
2022-12-18T09:49:36.986Z,99934.19
2022-12-18T09:52:16.939Z,99944.03
2022-12-18T09:55:06.440Z,99946.72
2022-12-18T09:57:36.592Z,99953.34
2022-12-18T10:00:14.712Z,99970.97
2022-12-18T10:02:41.705Z,99970.94
2022-12-18T10:05:15.940Z,99960.97
2022-12-18T10:07:48.232Z,99961.13
2022-12-18T10:10:35.861Z,99958.13
2022-12-18T10:13:17.655Z,99959.78
2022-12-18T10:16:09.743Z,99955.56
2022-12-18T10:18:49.439Z,99957.75
2022-12-18T10:21:26.528Z,99953.13
2022-12-18T10:24:17.069Z,99954.22
2022-12-18T10:26:45.098Z,99963.13
2022-12-18T10:29:17.256Z,99971.25
2022-12-18T10:31:44.411Z,99970.19
2022-12-18T10:34:12.167Z,99965.84
2022-12-18T10:36:39.239Z,99960.88
2022-12-18T10:39:18.475Z,99946.63
2022-12-18T10:41:45.707Z,99946.91
2022-12-18T10:44:21.041Z,99960.41
2022-12-18T10:46:51.111Z,99957.38
2022-12-18T10:49:24.725Z,99946.22
2022-12-18T10:51:52.921Z,99941.88
2022-12-18T10:54:23.597Z,99928.78
2022-12-18T10:56:50.658Z,99930.88
2022-12-18T10:59:18.889Z,99934.19
2022-12-18T11:01:58.190Z,99932.94
2022-12-18T11:04:31.251Z,99932.63
2022-12-18T11:07:04.054Z,99923.41
2022-12-18T11:09:36.582Z,99925.31
2022-12-18T11:12:13.923Z,99921.75
2022-12-18T11:14:49.846Z,99917.06
2022-12-18T11:17:31.660Z,99926.31
2022-12-18T11:20:23.522Z,99935.63
2022-12-18T11:23:05.642Z,99928.19
2022-12-18T11:25:35.382Z,99934.66
2022-12-18T11:28:27.007Z,99928.59
2022-12-18T11:31:23.536Z,99933.63
2022-12-18T11:36:49.160Z,99917.94
2022-12-18T11:39:30.374Z,99915.78
2022-12-18T11:42:10.811Z,99917.88
2022-12-18T11:45:03.290Z,99927.75
2022-12-18T11:47:36.768Z,99921.22
2022-12-18T11:50:12.800Z,99917.81
2022-12-18T11:52:41.749Z,99921.78
2022-12-18T11:55:25.585Z,99917.53
2022-12-18T11:58:02.503Z,99910.47
2022-12-18T12:00:29.732Z,99904.78
2022-12-18T12:03:14.764Z,99905.22
2022-12-18T12:06:00.303Z,99900.94
2022-12-18T12:08:33.194Z,99902.06
2022-12-18T12:11:09.675Z,99882.84
2022-12-18T12:14:04.356Z,99886.06
2022-12-18T12:16:40.808Z,99890.44
2022-12-18T12:19:25.489Z,99894.16
2022-12-18T12:22:04.521Z,99893.97
2022-12-18T12:24:50.354Z,99891.28
2022-12-18T12:27:35.947Z,99902.34
2022-12-18T12:30:17.283Z,99891.28
2022-12-18T12:33:14.963Z,99891.53
2022-12-18T12:35:52.322Z,99881.91
2022-12-18T12:38:28.106Z,99879.41
2022-12-18T12:41:03.504Z,99899.00
2022-12-18T12:43:49.669Z,99898.81
2022-12-18T12:46:20.719Z,99900.88
2022-12-18T12:49:05.158Z,99906.22
2022-12-18T12:51:38.126Z,99909.66
2022-12-18T12:54:12.771Z,99911.69
2022-12-18T12:56:59.485Z,99911.53
2022-12-18T12:59:39.568Z,99902.97
2022-12-18T13:02:25.884Z,99900.31
2022-12-18T13:05:08.058Z,99898.28
2022-12-18T13:08:07.590Z,99889.22
2022-12-18T13:10:37.403Z,99885.13
2022-12-18T13:13:17.934Z,99885.75
2022-12-18T13:16:05.868Z,99879.97
2022-12-18T13:18:33.796Z,99873.44
2022-12-18T13:21:03.231Z,99867.50
2022-12-18T13:23:37.512Z,99870.34
2022-12-18T13:26:07.471Z,99871.16
2022-12-18T13:28:34.508Z,99866.66
2022-12-18T13:31:02.623Z,99865.25
2022-12-18T13:33:29.856Z,99856.84
2022-12-18T13:36:14.246Z,99867.31
2022-12-18T13:38:42.864Z,99855.44
2022-12-18T13:41:15.747Z,99851.28
2022-12-18T13:43:47.204Z,99836.72
2022-12-18T13:46:20.411Z,99833.69
2022-12-18T13:48:56.437Z,99838.03
2022-12-18T13:51:24.943Z,99839.84
2022-12-18T13:53:55.281Z,99839.06
2022-12-18T13:56:31.400Z,99841.72
2022-12-18T13:59:14.476Z,99842.28
2022-12-18T14:01:53.922Z,99826.31
2022-12-18T14:04:26.063Z,99838.81
2022-12-18T14:06:56.905Z,99833.50
2022-12-18T14:09:30.884Z,99827.72
2022-12-18T14:12:19.491Z,99829.59
2022-12-18T14:14:48.823Z,99835.72
2022-12-18T14:17:17.115Z,99835.53
2022-12-18T14:19:47.510Z,99843.88
2022-12-18T14:22:30.275Z,99846.28
2022-12-18T14:25:16.301Z,99844.88
2022-12-18T14:27:46.631Z,99833.78
2022-12-18T14:30:44.059Z,99838.69
2022-12-18T14:33:16.938Z,99832.69
2022-12-18T14:35:55.710Z,99827.75
2022-12-18T14:38:33.634Z,99823.84
2022-12-18T14:41:14.168Z,99828.94
2022-12-18T14:43:48.911Z,99831.81
2022-12-18T14:46:36.537Z,99835.47
2022-12-18T14:49:37.684Z,99830.56
2022-12-18T14:52:07.086Z,99830.94
2022-12-18T14:54:37.787Z,99842.16
2022-12-18T14:57:25.917Z,99845.19
2022-12-18T14:59:53.013Z,99843.56
2022-12-18T15:02:26.087Z,99847.22
2022-12-18T15:05:12.710Z,99843.94
2022-12-18T15:07:54.634Z,99830.22
2022-12-18T15:10:24.349Z,99832.03
2022-12-18T15:13:08.538Z,99825.84
2022-12-18T15:15:38.608Z,99825.41
2022-12-18T15:18:08.383Z,99826.63
2022-12-18T15:20:43.335Z,99820.66
2022-12-18T15:23:33.814Z,99823.72
2022-12-18T15:26:09.838Z,99820.41
2022-12-18T15:28:40.105Z,99818.78
2022-12-18T15:31:11.967Z,99819.16
2022-12-18T15:33:42.661Z,99815.31
2022-12-18T15:36:12.085Z,99814.69
2022-12-18T15:38:38.925Z,99814.22
2022-12-18T15:41:08.945Z,99812.34
2022-12-18T15:43:40.229Z,99813.53
2022-12-18T15:46:13.973Z,99812.34
2022-12-18T15:48:46.419Z,99806.63
2022-12-18T15:51:21.192Z,99805.41
2022-12-18T15:53:54.874Z,99806.44
2022-12-18T15:56:40.609Z,99807.25
2022-12-18T15:59:30.840Z,99805.69
2022-12-18T16:01:57.702Z,99808.13
2022-12-18T16:04:26.316Z,99810.78
2022-12-18T16:09:40.028Z,99806.09
2022-12-18T16:12:14.942Z,99801.19
2022-12-18T16:14:41.840Z,99812.19
2022-12-18T16:17:11.958Z,99804.44
2022-12-18T16:19:38.736Z,99796.06
2022-12-18T16:22:06.606Z,99803.84
2022-12-18T16:24:36.916Z,99796.25
2022-12-18T16:27:04.047Z,99796.63
2022-12-18T16:29:30.982Z,99798.09
2022-12-18T16:32:00.141Z,99798.34
2022-12-18T16:34:29.957Z,99804.09
2022-12-18T16:37:08.268Z,99807.63
2022-12-18T16:39:35.964Z,99805.97
2022-12-18T16:42:17.419Z,99808.63
2022-12-18T16:44:45.446Z,99800.25
2022-12-18T16:47:15.109Z,99805.19
2022-12-18T16:49:45.233Z,99792.97
2022-12-18T16:52:12.602Z,99785.16
2022-12-18T16:54:39.305Z,99785.00
2022-12-18T16:57:07.773Z,99778.03
2022-12-18T16:59:37.323Z,99786.00
2022-12-18T17:02:05.844Z,99779.03
2022-12-18T17:04:33.630Z,99782.47
2022-12-18T17:07:00.367Z,99786.16
2022-12-18T17:09:32.061Z,99782.47
2022-12-18T17:12:03.936Z,99783.66
2022-12-18T17:14:32.919Z,99786.72
2022-12-18T17:17:20.284Z,99781.59
2022-12-18T17:19:47.061Z,99782.41
2022-12-18T17:22:13.733Z,99775.44
2022-12-18T17:24:40.523Z,99770.53
2022-12-18T17:27:08.836Z,99768.50
2022-12-18T17:29:35.787Z,99760.28
2022-12-18T17:32:02.624Z,99757.81
2022-12-18T17:34:30.002Z,99772.31
2022-12-18T17:36:57.853Z,99781.31
2022-12-18T17:39:28.643Z,99771.69
2022-12-18T17:41:57.294Z,99775.34
2022-12-18T17:44:26.632Z,99782.69
2022-12-18T17:46:53.515Z,99773.47
2022-12-18T17:49:21.263Z,99779.22
2022-12-18T17:51:48.990Z,99780.84
2022-12-18T17:54:15.767Z,99778.78
2022-12-18T17:56:42.648Z,99778.78
2022-12-18T17:59:09.668Z,99772.44
2022-12-18T18:01:43.775Z,99767.56
2022-12-18T18:04:12.050Z,99763.00
2022-12-18T18:06:39.602Z,99756.25
2022-12-18T18:09:16.295Z,99760.19
2022-12-18T18:12:04.123Z,99766.13
2022-12-18T18:14:31.411Z,99765.88
2022-12-18T18:17:04.027Z,99751.75
2022-12-18T18:19:31.999Z,99769.97
2022-12-18T18:21:58.958Z,99772.44
2022-12-18T18:24:28.238Z,99782.06
2022-12-18T18:26:56.454Z,99778.56
2022-12-18T18:29:26.582Z,99781.06
2022-12-18T18:31:54.238Z,99785.16
2022-12-18T18:34:27.720Z,99785.75
2022-12-18T18:36:54.507Z,99790.03
2022-12-18T18:39:21.331Z,99783.91
2022-12-18T18:41:51.030Z,99789.22
2022-12-18T18:44:20.534Z,99787.38
2022-12-18T18:46:57.699Z,99784.72
2022-12-18T18:49:27.305Z,99775.09
2022-12-18T18:51:55.273Z,99762.84
2022-12-18T18:54:22.233Z,99776.75
2022-12-18T18:59:37.151Z,99758.31
2022-12-18T19:02:05.031Z,99763.84
2022-12-18T19:04:33.745Z,99754.84
2022-12-18T19:07:00.602Z,99753.44
2022-12-18T19:09:28.587Z,99745.88
2022-12-18T19:12:15.080Z,99745.03
2022-12-18T19:14:42.440Z,99735.22
2022-12-18T19:17:10.024Z,99729.06
2022-12-18T19:19:36.756Z,99737.25
2022-12-18T19:22:03.679Z,99728.28
2022-12-18T19:24:30.733Z,99723.59
2022-12-18T19:26:58.237Z,99729.47
2022-12-18T19:29:25.266Z,99723.28
2022-12-18T19:31:52.184Z,99723.72
2022-12-18T19:34:19.164Z,99719.84
2022-12-18T19:36:46.512Z,99709.03
2022-12-18T19:39:17.099Z,99716.63
2022-12-18T19:41:44.271Z,99707.81
2022-12-18T19:44:13.696Z,99715.59
2022-12-18T19:46:41.817Z,99705.78
2022-12-18T19:49:18.005Z,99703.31
2022-12-18T19:51:47.811Z,99722.13
2022-12-18T19:54:17.866Z,99711.47
2022-12-18T19:56:45.828Z,99703.13
2022-12-18T19:59:12.945Z,99692.88
2022-12-18T20:01:40.771Z,99699.03
2022-12-18T20:04:08.070Z,99704.97
2022-12-18T20:06:50.433Z,99701.72
2022-12-18T20:09:17.906Z,99690.91
2022-12-18T20:11:46.131Z,99695.19
2022-12-18T20:14:19.676Z,99694.63
2022-12-18T20:16:51.994Z,99695.44
2022-12-18T20:19:19.485Z,99695.44
2022-12-18T20:21:46.308Z,99700.13
2022-12-18T20:24:13.358Z,99701.97
2022-12-18T20:26:40.574Z,99701.00
2022-12-18T20:29:07.623Z,99701.78
2022-12-18T20:31:34.605Z,99709.13
2022-12-18T20:34:03.578Z,99700.72
2022-12-18T20:36:34.311Z,99691.91
2022-12-18T20:39:07.531Z,99700.72
2022-12-18T20:41:38.392Z,99702.53
2022-12-18T20:44:21.738Z,99708.69
2022-12-18T20:46:56.197Z,99713.63
2022-12-18T20:49:24.730Z,99723.44
2022-12-18T20:51:53.231Z,99723.81
2022-12-18T20:54:21.362Z,99733.25
2022-12-18T20:56:48.088Z,99740.84
2022-12-18T20:59:14.846Z,99733.09
2022-12-18T21:01:46.020Z,99724.53
2022-12-18T21:04:15.992Z,99723.34
2022-12-18T21:06:49.630Z,99726.56
2022-12-18T21:09:19.177Z,99718.56
2022-12-18T21:12:04.688Z,99725.91
2022-12-18T21:14:31.549Z,99730.16
2022-12-18T21:17:00.933Z,99725.22
2022-12-18T21:19:28.482Z,99720.47
2022-12-18T21:21:56.463Z,99717.00
2022-12-18T21:24:23.583Z,99719.28
2022-12-18T21:26:50.435Z,99711.31
2022-12-18T21:29:20.337Z,99705.97
2022-12-18T21:31:47.513Z,99709.66
2022-12-18T21:34:19.958Z,99704.34
2022-12-18T21:36:47.416Z,99715.22
2022-12-18T21:39:15.342Z,99703.94
2022-12-18T21:42:00.849Z,99693.94
2022-12-18T21:44:27.883Z,99706.28
2022-12-18T21:46:59.827Z,99692.34
2022-12-18T21:49:28.384Z,99698.09
2022-12-18T21:51:57.210Z,99679.72
2022-12-18T21:54:25.329Z,99687.13
2022-12-18T21:56:53.307Z,99679.94
2022-12-18T21:59:25.895Z,99675.47
2022-12-18T22:01:55.106Z,99681.41
2022-12-18T22:04:23.293Z,99689.16
2022-12-18T22:06:50.492Z,99699.63
2022-12-18T22:09:20.931Z,99702.72
2022-12-18T22:11:49.018Z,99697.00
2022-12-18T22:14:16.653Z,99685.34
2022-12-18T22:16:43.598Z,99681.66
2022-12-18T22:19:12.074Z,99683.69
2022-12-18T22:21:43.602Z,99686.34
2022-12-18T22:24:21.466Z,99681.47
2022-12-18T22:26:50.069Z,99686.41
2022-12-18T22:29:37.659Z,99690.69
2022-12-18T22:32:06.152Z,99705.22
2022-12-18T22:34:36.603Z,99710.28
2022-12-18T22:37:03.558Z,99719.91
2022-12-18T22:39:31.365Z,99713.56
2022-12-18T22:41:59.027Z,99730.00
2022-12-18T22:44:26.203Z,99734.47
2022-12-18T22:47:05.966Z,99729.78
2022-12-18T22:49:35.124Z,99725.47
2022-12-18T22:52:06.083Z,99716.69
2022-12-18T22:54:32.849Z,99720.53
2022-12-18T22:56:59.600Z,99717.84
2022-12-18T22:59:26.258Z,99711.69
2022-12-18T23:01:58.496Z,99724.81
2022-12-18T23:04:29.294Z,99747.75
2022-12-18T23:07:05.089Z,99742.44
2022-12-18T23:09:32.455Z,99754.31
2022-12-18T23:11:59.334Z,99762.53
2022-12-18T23:14:26.470Z,99754.34
2022-12-18T23:16:53.411Z,99738.00
2022-12-18T23:19:21.018Z,99753.94
2022-12-18T23:21:51.095Z,99750.66
2022-12-18T23:24:18.104Z,99747.00
2022-12-18T23:26:44.907Z,99747.38
2022-12-18T23:29:11.680Z,99746.38
2022-12-18T23:31:39.613Z,99760.91
2022-12-18T23:34:07.577Z,99750.66
2022-12-18T23:36:45.933Z,99740.66
2022-12-18T23:39:24.379Z,99743.94
2022-12-18T23:41:58.270Z,99734.53
2022-12-18T23:44:25.875Z,99730.22
2022-12-18T23:46:52.956Z,99722.84
2022-12-18T23:49:19.989Z,99718.75
2022-12-18T23:51:46.763Z,99711.38
2022-12-18T23:54:13.555Z,99705.66
2022-12-18T23:56:40.388Z,99700.34
2022-12-18T23:59:07.246Z,99695.03
